sensor_id;sensor_type;location;lat;lon;timestamp;P1;durP1;ratioP1;P2;durP2;ratioP2
68647;SDS011;55632;51.962;16.116;2023-03-01T00:00:29;103.27;;;41.80;;
68647;SDS011;55632;51.962;16.116;2023-03-01T00:05:30;171.85;;;54.17;;
68647;SDS011;55632;51.962;16.116;2023-03-01T00:10:34;84.70;;;28.43;;
68647;SDS011;55632;51.962;16.116;2023-03-01T00:15:38;157.20;;;49.23;;
68647;SDS011;55632;51.962;16.116;2023-03-01T00:20:54;139.67;;;48.83;;
68647;SDS011;55632;51.962;16.116;2023-03-01T00:25:55;163.68;;;51.92;;
68647;SDS011;55632;51.962;16.116;2023-03-01T00:31:07;166.30;;;54.83;;
68647;SDS011;55632;51.962;16.116;2023-03-01T00:36:15;184.97;;;58.80;;
68647;SDS011;55632;51.962;16.116;2023-03-01T00:41:17;185.35;;;59.55;;
68647;SDS011;55632;51.962;16.116;2023-03-01T00:46:20;163.87;;;51.27;;
68647;SDS011;55632;51.962;16.116;2023-03-01T00:51:24;145.37;;;48.47;;
68647;SDS011;55632;51.962;16.116;2023-03-01T00:56:27;139.33;;;43.00;;
68647;SDS011;55632;51.962;16.116;2023-03-01T01:01:29;141.20;;;47.53;;
68647;SDS011;55632;51.962;16.116;2023-03-01T01:06:38;110.17;;;44.07;;
68647;SDS011;55632;51.962;16.116;2023-03-01T01:11:43;116.40;;;40.23;;
68647;SDS011;55632;51.962;16.116;2023-03-01T01:16:45;110.43;;;38.57;;
68647;SDS011;55632;51.962;16.116;2023-03-01T01:26:48;108.05;;;39.25;;
68647;SDS011;55632;51.962;16.116;2023-03-01T01:31:51;200.43;;;64.53;;
68647;SDS011;55632;51.962;16.116;2023-03-01T01:36:53;170.80;;;53.63;;
68647;SDS011;55632;51.962;16.116;2023-03-01T01:41:54;103.73;;;34.10;;
68647;SDS011;55632;51.962;16.116;2023-03-01T01:46:56;93.53;;;33.45;;
68647;SDS011;55632;51.962;16.116;2023-03-01T01:52:14;129.40;;;40.57;;
68647;SDS011;55632;51.962;16.116;2023-03-01T01:57:29;106.50;;;36.80;;
68647;SDS011;55632;51.962;16.116;2023-03-01T02:02:34;108.40;;;39.63;;
68647;SDS011;55632;51.962;16.116;2023-03-01T02:07:36;96.63;;;36.80;;
68647;SDS011;55632;51.962;16.116;2023-03-01T02:12:42;124.17;;;41.90;;
68647;SDS011;55632;51.962;16.116;2023-03-01T02:17:43;122.43;;;43.92;;
68647;SDS011;55632;51.962;16.116;2023-03-01T02:22:44;113.18;;;41.78;;
68647;SDS011;55632;51.962;16.116;2023-03-01T02:32:57;100.20;;;38.17;;
68647;SDS011;55632;51.962;16.116;2023-03-01T02:38:03;98.43;;;38.27;;
68647;SDS011;55632;51.962;16.116;2023-03-01T02:43:08;83.70;;;32.30;;
68647;SDS011;55632;51.962;16.116;2023-03-01T02:48:14;96.23;;;36.83;;
68647;SDS011;55632;51.962;16.116;2023-03-01T02:53:16;109.95;;;39.28;;
68647;SDS011;55632;51.962;16.116;2023-03-01T02:58:28;118.77;;;41.03;;
68647;SDS011;55632;51.962;16.116;2023-03-01T03:03:29;95.30;;;30.23;;
68647;SDS011;55632;51.962;16.116;2023-03-01T03:08:30;97.75;;;36.60;;
68647;SDS011;55632;51.962;16.116;2023-03-01T03:13:31;92.97;;;34.50;;
68647;SDS011;55632;51.962;16.116;2023-03-01T03:18:32;93.27;;;33.40;;
68647;SDS011;55632;51.962;16.116;2023-03-01T03:23:33;101.65;;;35.78;;
68647;SDS011;55632;51.962;16.116;2023-03-01T03:28:34;101.03;;;36.92;;
68647;SDS011;55632;51.962;16.116;2023-03-01T03:33:35;83.47;;;33.03;;
68647;SDS011;55632;51.962;16.116;2023-03-01T03:38:39;109.03;;;42.10;;
68647;SDS011;55632;51.962;16.116;2023-03-01T03:48:43;86.93;;;32.73;;
68647;SDS011;55632;51.962;16.116;2023-03-01T03:53:45;87.10;;;31.70;;
68647;SDS011;55632;51.962;16.116;2023-03-01T03:58:46;107.55;;;39.90;;
68647;SDS011;55632;51.962;16.116;2023-03-01T04:03:47;99.43;;;38.85;;
68647;SDS011;55632;51.962;16.116;2023-03-01T04:08:47;102.07;;;39.63;;
68647;SDS011;55632;51.962;16.116;2023-03-01T04:13:52;79.77;;;32.50;;
68647;SDS011;55632;51.962;16.116;2023-03-01T04:18:54;87.23;;;34.33;;
68647;SDS011;55632;51.962;16.116;2023-03-01T04:23:54;90.32;;;34.15;;
68647;SDS011;55632;51.962;16.116;2023-03-01T04:28:58;104.53;;;38.17;;
68647;SDS011;55632;51.962;16.116;2023-03-01T04:33:59;85.10;;;31.23;;
68647;SDS011;55632;51.962;16.116;2023-03-01T04:39:00;103.95;;;35.83;;
68647;SDS011;55632;51.962;16.116;2023-03-01T04:44:12;96.37;;;36.23;;
68647;SDS011;55632;51.962;16.116;2023-03-01T04:49:12;395.80;;;177.23;;
68647;SDS011;55632;51.962;16.116;2023-03-01T04:54:16;150.10;;;54.00;;
68647;SDS011;55632;51.962;16.116;2023-03-01T04:59:18;160.73;;;57.03;;
68647;SDS011;55632;51.962;16.116;2023-03-01T05:04:23;87.40;;;34.30;;
68647;SDS011;55632;51.962;16.116;2023-03-01T05:09:29;129.00;;;44.30;;
68647;SDS011;55632;51.962;16.116;2023-03-01T05:14:30;125.63;;;44.17;;
68647;SDS011;55632;51.962;16.116;2023-03-01T05:19:31;90.50;;;38.03;;
68647;SDS011;55632;51.962;16.116;2023-03-01T05:24:33;103.43;;;38.90;;
68647;SDS011;55632;51.962;16.116;2023-03-01T05:29:35;154.13;;;45.83;;
68647;SDS011;55632;51.962;16.116;2023-03-01T05:34:36;387.30;;;101.50;;
68647;SDS011;55632;51.962;16.116;2023-03-01T05:39:39;127.67;;;46.67;;
68647;SDS011;55632;51.962;16.116;2023-03-01T05:44:41;111.37;;;39.87;;
68647;SDS011;55632;51.962;16.116;2023-03-01T05:49:42;94.10;;;37.67;;
68647;SDS011;55632;51.962;16.116;2023-03-01T05:54:43;108.43;;;41.53;;
68647;SDS011;55632;51.962;16.116;2023-03-01T05:59:45;104.18;;;39.17;;
68647;SDS011;55632;51.962;16.116;2023-03-01T06:04:46;231.47;;;68.50;;
68647;SDS011;55632;51.962;16.116;2023-03-01T06:09:49;174.83;;;55.97;;
68647;SDS011;55632;51.962;16.116;2023-03-01T06:14:50;101.83;;;32.67;;
68647;SDS011;55632;51.962;16.116;2023-03-01T06:19:51;99.10;;;36.97;;
68647;SDS011;55632;51.962;16.116;2023-03-01T06:24:52;160.23;;;50.60;;
68647;SDS011;55632;51.962;16.116;2023-03-01T06:29:53;110.68;;;35.67;;
68647;SDS011;55632;51.962;16.116;2023-03-01T06:39:54;95.47;;;38.27;;
68647;SDS011;55632;51.962;16.116;2023-03-01T06:44:55;275.88;;;102.45;;
68647;SDS011;55632;51.962;16.116;2023-03-01T06:49:56;208.80;;;75.18;;
68647;SDS011;55632;51.962;16.116;2023-03-01T06:54:56;221.50;;;71.43;;
68647;SDS011;55632;51.962;16.116;2023-03-01T06:59:57;215.82;;;67.22;;
68647;SDS011;55632;51.962;16.116;2023-03-01T07:04:58;195.18;;;71.20;;
68647;SDS011;55632;51.962;16.116;2023-03-01T07:09:59;177.13;;;60.10;;
68647;SDS011;55632;51.962;16.116;2023-03-01T07:14:59;135.13;;;53.22;;
68647;SDS011;55632;51.962;16.116;2023-03-01T07:20:00;113.75;;;42.60;;
68647;SDS011;55632;51.962;16.116;2023-03-01T07:25:01;143.07;;;55.47;;
68647;SDS011;55632;51.962;16.116;2023-03-01T07:30:02;181.30;;;62.30;;
68647;SDS011;55632;51.962;16.116;2023-03-01T07:35:03;110.50;;;44.57;;
68647;SDS011;55632;51.962;16.116;2023-03-01T07:45:06;107.63;;;40.70;;
68647;SDS011;55632;51.962;16.116;2023-03-01T07:50:08;134.63;;;52.00;;
68647;SDS011;55632;51.962;16.116;2023-03-01T07:55:09;121.60;;;53.20;;
68647;SDS011;55632;51.962;16.116;2023-03-01T08:00:10;88.70;;;37.95;;
68647;SDS011;55632;51.962;16.116;2023-03-01T08:05:15;79.50;;;34.77;;
68647;SDS011;55632;51.962;16.116;2023-03-01T08:15:17;73.93;;;34.83;;
68647;SDS011;55632;51.962;16.116;2023-03-01T08:20:19;71.47;;;34.70;;
68647;SDS011;55632;51.962;16.116;2023-03-01T08:25:19;82.97;;;36.47;;
68647;SDS011;55632;51.962;16.116;2023-03-01T08:30:20;72.35;;;33.88;;
68647;SDS011;55632;51.962;16.116;2023-03-01T08:35:21;74.07;;;37.05;;
68647;SDS011;55632;51.962;16.116;2023-03-01T08:40:22;70.35;;;36.40;;
68647;SDS011;55632;51.962;16.116;2023-03-01T08:45:23;77.63;;;36.03;;
68647;SDS011;55632;51.962;16.116;2023-03-01T08:50:23;77.55;;;37.70;;
68647;SDS011;55632;51.962;16.116;2023-03-01T08:55:24;82.13;;;38.78;;
68647;SDS011;55632;51.962;16.116;2023-03-01T09:00:25;99.85;;;40.58;;
68647;SDS011;55632;51.962;16.116;2023-03-01T09:10:27;119.87;;;48.87;;
68647;SDS011;55632;51.962;16.116;2023-03-01T09:15:30;114.53;;;48.87;;
68647;SDS011;55632;51.962;16.116;2023-03-01T09:25:33;84.77;;;35.30;;
68647;SDS011;55632;51.962;16.116;2023-03-01T09:30:34;48.95;;;25.50;;
68647;SDS011;55632;51.962;16.116;2023-03-01T09:35:37;50.35;;;23.95;;
68647;SDS011;55632;51.962;16.116;2023-03-01T09:40:46;41.30;;;20.23;;
68647;SDS011;55632;51.962;16.116;2023-03-01T09:45:46;40.00;;;21.17;;
68647;SDS011;55632;51.962;16.116;2023-03-01T09:50:50;32.83;;;16.55;;
68647;SDS011;55632;51.962;16.116;2023-03-01T10:01:03;30.90;;;17.17;;
68647;SDS011;55632;51.962;16.116;2023-03-01T10:06:20;36.50;;;16.45;;
68647;SDS011;55632;51.962;16.116;2023-03-01T10:11:24;32.15;;;15.50;;
68647;SDS011;55632;51.962;16.116;2023-03-01T10:22:00;25.88;;;14.32;;
68647;SDS011;55632;51.962;16.116;2023-03-01T10:27:13;46.33;;;18.15;;
68647;SDS011;55632;51.962;16.116;2023-03-01T10:32:26;32.22;;;14.07;;
68647;SDS011;55632;51.962;16.116;2023-03-01T10:37:30;22.98;;;12.65;;
68647;SDS011;55632;51.962;16.116;2023-03-01T10:42:32;23.17;;;11.43;;
68647;SDS011;55632;51.962;16.116;2023-03-01T10:47:34;25.45;;;12.48;;
68647;SDS011;55632;51.962;16.116;2023-03-01T10:52:40;23.15;;;10.52;;
68647;SDS011;55632;51.962;16.116;2023-03-01T10:57:44;23.17;;;12.73;;
68647;SDS011;55632;51.962;16.116;2023-03-01T11:07:52;20.17;;;10.23;;
68647;SDS011;55632;51.962;16.116;2023-03-01T11:18:35;19.05;;;9.32;;
68647;SDS011;55632;51.962;16.116;2023-03-01T11:28:38;16.75;;;8.27;;
68647;SDS011;55632;51.962;16.116;2023-03-01T11:34:02;22.20;;;9.70;;
68647;SDS011;55632;51.962;16.116;2023-03-01T11:44:34;14.88;;;7.70;;
68647;SDS011;55632;51.962;16.116;2023-03-01T11:55:01;19.20;;;8.98;;
68647;SDS011;55632;51.962;16.116;2023-03-01T12:16:03;14.63;;;6.43;;
68647;SDS011;55632;51.962;16.116;2023-03-01T12:21:34;22.90;;;10.38;;
68647;SDS011;55632;51.962;16.116;2023-03-01T12:42:38;8.70;;;5.57;;
68647;SDS011;55632;51.962;16.116;2023-03-01T12:48:10;10.05;;;5.32;;
68647;SDS011;55632;51.962;16.116;2023-03-01T12:53:25;32.38;;;13.75;;
68647;SDS011;55632;51.962;16.116;2023-03-01T12:58:35;34.42;;;14.00;;
68647;SDS011;55632;51.962;16.116;2023-03-01T13:04:06;20.60;;;9.82;;
68647;SDS011;55632;51.962;16.116;2023-03-01T13:09:31;10.85;;;6.38;;
68647;SDS011;55632;51.962;16.116;2023-03-01T13:14:44;10.00;;;5.38;;
68647;SDS011;55632;51.962;16.116;2023-03-01T13:19:56;10.80;;;4.72;;
68647;SDS011;55632;51.962;16.116;2023-03-01T13:25:10;6.80;;;4.25;;
68647;SDS011;55632;51.962;16.116;2023-03-01T13:35:41;10.35;;;5.50;;
68647;SDS011;55632;51.962;16.116;2023-03-01T13:45:55;8.20;;;4.68;;
68647;SDS011;55632;51.962;16.116;2023-03-01T13:51:03;9.40;;;3.88;;
68647;SDS011;55632;51.962;16.116;2023-03-01T13:56:26;10.15;;;5.03;;
68647;SDS011;55632;51.962;16.116;2023-03-01T14:01:32;8.23;;;3.90;;
68647;SDS011;55632;51.962;16.116;2023-03-01T14:06:37;8.85;;;5.00;;
68647;SDS011;55632;51.962;16.116;2023-03-01T14:22:23;8.32;;;3.50;;
68647;SDS011;55632;51.962;16.116;2023-03-01T14:27:33;10.82;;;4.70;;
68647;SDS011;55632;51.962;16.116;2023-03-01T14:32:42;7.68;;;4.38;;
68647;SDS011;55632;51.962;16.116;2023-03-01T14:37:43;12.30;;;4.60;;
68647;SDS011;55632;51.962;16.116;2023-03-01T14:47:45;9.07;;;4.55;;
68647;SDS011;55632;51.962;16.116;2023-03-01T14:52:47;5.68;;;3.22;;
68647;SDS011;55632;51.962;16.116;2023-03-01T14:57:52;9.65;;;4.70;;
68647;SDS011;55632;51.962;16.116;2023-03-01T15:02:54;9.73;;;4.20;;
68647;SDS011;55632;51.962;16.116;2023-03-01T15:08:16;8.60;;;4.88;;
68647;SDS011;55632;51.962;16.116;2023-03-01T15:13:25;38.83;;;14.27;;
68647;SDS011;55632;51.962;16.116;2023-03-01T15:18:29;23.20;;;9.10;;
68647;SDS011;55632;51.962;16.116;2023-03-01T15:28:34;35.08;;;14.02;;
68647;SDS011;55632;51.962;16.116;2023-03-01T15:33:40;57.92;;;18.60;;
68647;SDS011;55632;51.962;16.116;2023-03-01T15:38:54;30.15;;;16.13;;
68647;SDS011;55632;51.962;16.116;2023-03-01T15:43:59;28.27;;;14.57;;
68647;SDS011;55632;51.962;16.116;2023-03-01T15:49:02;21.77;;;8.60;;
68647;SDS011;55632;51.962;16.116;2023-03-01T15:54:39;15.00;;;6.68;;
68647;SDS011;55632;51.962;16.116;2023-03-01T15:59:33;56.35;;;22.95;;
68647;SDS011;55632;51.962;16.116;2023-03-01T16:09:34;21.42;;;8.32;;
68647;SDS011;55632;51.962;16.116;2023-03-01T16:14:36;17.45;;;7.55;;
68647;SDS011;55632;51.962;16.116;2023-03-01T16:24:38;28.13;;;6.50;;
68647;SDS011;55632;51.962;16.116;2023-03-01T16:29:43;17.65;;;6.38;;
68647;SDS011;55632;51.962;16.116;2023-03-01T16:34:44;12.55;;;5.90;;
68647;SDS011;55632;51.962;16.116;2023-03-01T16:44:46;31.02;;;13.02;;
68647;SDS011;55632;51.962;16.116;2023-03-01T16:54:47;27.75;;;11.77;;
68647;SDS011;55632;51.962;16.116;2023-03-01T17:04:52;15.85;;;7.25;;
68647;SDS011;55632;51.962;16.116;2023-03-01T17:09:55;17.23;;;7.70;;
68647;SDS011;55632;51.962;16.116;2023-03-01T17:19:57;24.05;;;10.90;;
68647;SDS011;55632;51.962;16.116;2023-03-01T17:24:58;66.38;;;29.33;;
68647;SDS011;55632;51.962;16.116;2023-03-01T17:29:59;35.90;;;17.17;;
68647;SDS011;55632;51.962;16.116;2023-03-01T17:40:01;21.08;;;9.57;;
68647;SDS011;55632;51.962;16.116;2023-03-01T17:50:03;15.55;;;6.93;;
68647;SDS011;55632;51.962;16.116;2023-03-01T17:55:06;365.48;;;96.10;;
68647;SDS011;55632;51.962;16.116;2023-03-01T18:00:12;465.90;;;131.18;;
68647;SDS011;55632;51.962;16.116;2023-03-01T18:05:15;387.70;;;112.45;;
68647;SDS011;55632;51.962;16.116;2023-03-01T18:10:16;463.00;;;133.23;;
68647;SDS011;55632;51.962;16.116;2023-03-01T18:15:18;513.22;;;148.52;;
68647;SDS011;55632;51.962;16.116;2023-03-01T18:20:19;386.35;;;89.00;;
68647;SDS011;55632;51.962;16.116;2023-03-01T18:25:20;80.35;;;22.75;;
68647;SDS011;55632;51.962;16.116;2023-03-01T18:30:21;92.07;;;24.35;;
68647;SDS011;55632;51.962;16.116;2023-03-01T18:35:22;13.85;;;5.93;;
68647;SDS011;55632;51.962;16.116;2023-03-01T18:40:23;10.18;;;5.03;;
68647;SDS011;55632;51.962;16.116;2023-03-01T18:45:24;11.65;;;5.18;;
68647;SDS011;55632;51.962;16.116;2023-03-01T18:50:25;32.50;;;12.25;;
68647;SDS011;55632;51.962;16.116;2023-03-01T19:00:27;55.75;;;21.15;;
68647;SDS011;55632;51.962;16.116;2023-03-01T19:05:29;79.90;;;25.33;;
68647;SDS011;55632;51.962;16.116;2023-03-01T19:10:30;37.63;;;13.77;;
68647;SDS011;55632;51.962;16.116;2023-03-01T19:15:34;36.38;;;14.13;;
68647;SDS011;55632;51.962;16.116;2023-03-01T19:20:37;23.25;;;10.98;;
68647;SDS011;55632;51.962;16.116;2023-03-01T19:25:42;26.83;;;10.18;;
68647;SDS011;55632;51.962;16.116;2023-03-01T19:30:43;34.80;;;11.70;;
68647;SDS011;55632;51.962;16.116;2023-03-01T19:35:44;39.88;;;16.00;;
68647;SDS011;55632;51.962;16.116;2023-03-01T19:40:45;30.15;;;12.55;;
68647;SDS011;55632;51.962;16.116;2023-03-01T19:45:54;368.67;;;133.20;;
68647;SDS011;55632;51.962;16.116;2023-03-01T19:50:58;167.60;;;50.53;;
68647;SDS011;55632;51.962;16.116;2023-03-01T19:56:02;275.95;;;83.40;;
68647;SDS011;55632;51.962;16.116;2023-03-01T20:01:10;160.32;;;51.53;;
68647;SDS011;55632;51.962;16.116;2023-03-01T20:06:19;132.88;;;43.70;;
68647;SDS011;55632;51.962;16.116;2023-03-01T20:11:21;77.32;;;28.40;;
68647;SDS011;55632;51.962;16.116;2023-03-01T20:16:25;149.52;;;50.47;;
68647;SDS011;55632;51.962;16.116;2023-03-01T20:21:28;109.97;;;35.60;;
68647;SDS011;55632;51.962;16.116;2023-03-01T20:26:32;121.97;;;41.28;;
68647;SDS011;55632;51.962;16.116;2023-03-01T20:31:36;120.40;;;42.27;;
68647;SDS011;55632;51.962;16.116;2023-03-01T20:36:38;171.33;;;54.80;;
68647;SDS011;55632;51.962;16.116;2023-03-01T20:41:40;143.17;;;48.80;;
68647;SDS011;55632;51.962;16.116;2023-03-01T20:46:41;108.72;;;35.95;;
68647;SDS011;55632;51.962;16.116;2023-03-01T20:51:42;88.38;;;30.50;;
68647;SDS011;55632;51.962;16.116;2023-03-01T20:56:44;145.77;;;46.77;;
68647;SDS011;55632;51.962;16.116;2023-03-01T21:01:47;147.70;;;52.33;;
68647;SDS011;55632;51.962;16.116;2023-03-01T21:06:54;161.90;;;50.53;;
68647;SDS011;55632;51.962;16.116;2023-03-01T21:11:57;160.67;;;49.33;;
68647;SDS011;55632;51.962;16.116;2023-03-01T21:16:58;156.20;;;49.00;;
68647;SDS011;55632;51.962;16.116;2023-03-01T21:21:59;175.30;;;60.58;;
68647;SDS011;55632;51.962;16.116;2023-03-01T21:27:00;140.45;;;47.65;;
68647;SDS011;55632;51.962;16.116;2023-03-01T21:32:06;174.33;;;59.93;;
68647;SDS011;55632;51.962;16.116;2023-03-01T21:37:08;201.17;;;63.90;;
68647;SDS011;55632;51.962;16.116;2023-03-01T21:42:09;348.37;;;101.57;;
68647;SDS011;55632;51.962;16.116;2023-03-01T21:47:13;247.73;;;80.45;;
68647;SDS011;55632;51.962;16.116;2023-03-01T21:52:15;203.47;;;63.70;;
68647;SDS011;55632;51.962;16.116;2023-03-01T21:57:16;215.02;;;70.43;;
68647;SDS011;55632;51.962;16.116;2023-03-01T22:02:20;174.30;;;63.20;;
68647;SDS011;55632;51.962;16.116;2023-03-01T22:07:21;151.48;;;53.15;;
68647;SDS011;55632;51.962;16.116;2023-03-01T22:12:23;137.43;;;49.03;;
68647;SDS011;55632;51.962;16.116;2023-03-01T22:17:23;151.38;;;49.17;;
68647;SDS011;55632;51.962;16.116;2023-03-01T22:22:24;158.73;;;52.53;;
68647;SDS011;55632;51.962;16.116;2023-03-01T22:27:25;116.85;;;39.22;;
68647;SDS011;55632;51.962;16.116;2023-03-01T22:32:26;94.20;;;37.78;;
68647;SDS011;55632;51.962;16.116;2023-03-01T22:37:27;102.40;;;36.65;;
68647;SDS011;55632;51.962;16.116;2023-03-01T22:42:27;173.85;;;54.95;;
68647;SDS011;55632;51.962;16.116;2023-03-01T22:47:28;197.98;;;68.82;;
68647;SDS011;55632;51.962;16.116;2023-03-01T22:52:29;179.80;;;59.22;;
68647;SDS011;55632;51.962;16.116;2023-03-01T22:57:30;123.15;;;42.28;;
68647;SDS011;55632;51.962;16.116;2023-03-01T23:02:31;139.57;;;46.45;;
68647;SDS011;55632;51.962;16.116;2023-03-01T23:07:35;130.27;;;45.80;;
68647;SDS011;55632;51.962;16.116;2023-03-01T23:12:36;154.97;;;49.73;;
68647;SDS011;55632;51.962;16.116;2023-03-01T23:17:37;191.13;;;65.05;;
68647;SDS011;55632;51.962;16.116;2023-03-01T23:22:38;143.75;;;46.88;;
68647;SDS011;55632;51.962;16.116;2023-03-01T23:27:39;186.53;;;63.33;;
68647;SDS011;55632;51.962;16.116;2023-03-01T23:32:41;178.63;;;57.45;;
68647;SDS011;55632;51.962;16.116;2023-03-01T23:37:41;183.88;;;60.90;;
68647;SDS011;55632;51.962;16.116;2023-03-01T23:42:45;170.60;;;58.60;;
68647;SDS011;55632;51.962;16.116;2023-03-01T23:47:46;162.70;;;54.73;;
68647;SDS011;55632;51.962;16.116;2023-03-01T23:52:47;196.80;;;62.78;;
68647;SDS011;55632;51.962;16.116;2023-03-01T23:57:50;160.73;;;50.60;;
